Time;durP1;ratioP1;P1;durP2;ratioP2;P2;SDS_P1;SDS_P2;PMS_P1;PMS_P2;Temp;Humidity;BMP_temperature;BMP_pressure;BME280_temperature;BME280_humidity;BME280_pressure;Samples;Min_cycle;Max_cycle;Signal;HPM_P1;HPM_P2
2022/11/23 00:01:22;;;;;;;4.40;2.50;;;;;;;7.12;100.00;99505.31;4996614;28;20029;-88
2022/11/23 00:04:05;;;;;;;4.03;2.35;;;;;;;7.10;100.00;99502.78;4996719;28;20037;-88
2022/11/23 00:06:30;;;;;;;5.60;2.38;;;;;;;7.10;100.00;99504.50;4996457;28;20026;-88
2022/11/23 00:08:56;;;;;;;4.17;2.50;;;;;;;7.09;100.00;99489.94;4996677;28;20022;-88
2022/11/23 00:11:23;;;;;;;5.13;2.70;;;;;;;7.12;100.00;99505.31;4996314;28;20429;-88
2022/11/23 00:14:06;;;;;;;5.82;2.47;;;;;;;7.11;100.00;99501.03;4996399;28;20034;-88
2022/11/23 00:16:32;;;;;;;5.13;2.50;;;;;;;7.11;100.00;99501.91;4995369;28;20033;-88
2022/11/23 00:19:19;;;;;;;6.47;2.67;;;;;;;7.13;100.00;99514.75;4996071;28;20026;-89
2022/11/23 00:21:44;;;;;;;4.97;2.50;;;;;;;7.09;100.00;99503.66;4995947;28;20045;-87
2022/11/23 00:24:21;;;;;;;4.93;2.30;;;;;;;7.13;100.00;99511.34;4995994;28;20464;-88
2022/11/23 00:26:46;;;;;;;5.28;2.40;;;;;;;7.14;100.00;99518.19;4996379;28;20026;-88
2022/11/23 00:29:12;;;;;;;3.50;2.20;;;;;;;7.13;100.00;99514.75;4995553;28;20084;-88
2022/11/23 00:31:37;;;;;;;4.97;2.07;;;;;;;7.13;100.00;99516.50;4995544;28;20026;-88
2022/11/23 00:34:05;;;;;;;6.05;2.20;;;;;;;7.13;100.00;99516.50;4995749;28;20027;-88
2022/11/23 00:36:31;;;;;;;3.63;2.10;;;;;;;7.15;100.00;99522.47;4995903;28;20026;-87
2022/11/23 00:38:57;;;;;;;5.57;1.90;;;;;;;7.14;100.00;99521.63;4995849;28;20027;-87
2022/11/23 00:41:37;;;;;;;4.70;2.22;;;;;;;7.12;100.00;99520.78;4995700;28;20030;-88
2022/11/23 00:44:03;;;;;;;3.65;2.03;;;;;;;7.15;100.00;99523.31;4995464;28;20642;-88
2022/11/23 00:46:28;;;;;;;4.77;2.13;;;;;;;7.13;100.00;99521.66;4996090;28;20030;-88
2022/11/23 00:49:09;;;;;;;2.50;2.05;;;;;;;7.15;100.00;99522.47;4995668;28;20026;-89
2022/11/23 00:51:36;;;;;;;5.13;2.05;;;;;;;7.15;100.00;99525.06;4995390;28;20481;-88
2022/11/23 00:54:04;;;;;;;5.90;2.17;;;;;;;7.17;100.00;99524.13;4995958;28;20045;-87
2022/11/23 00:56:30;;;;;;;4.57;2.20;;;;;;;7.15;100.00;99525.91;4995561;28;20022;-88
2022/11/23 00:58:57;;;;;;;3.22;2.00;;;;;;;7.16;100.00;99537.06;4995227;28;20041;-88
2022/11/23 01:01:25;;;;;;;3.45;1.92;;;;;;;7.16;100.00;99526.72;4994953;28;20071;-89
2022/11/23 01:04:01;;;;;;;3.88;2.03;;;;;;;7.17;100.00;99529.28;4995351;28;20081;-88
2022/11/23 01:06:35;;;;;;;3.40;2.10;;;;;;;7.17;100.00;99526.72;4996017;28;20356;-88
2022/11/23 01:09:04;;;;;;;3.85;1.67;;;;;;;7.17;100.00;99531.88;4994389;28;20031;-88
2022/11/23 01:11:39;;;;;;;4.75;2.00;;;;;;;7.14;100.00;99529.34;4995145;28;20050;-86
2022/11/23 01:14:05;;;;;;;3.70;2.15;;;;;;;7.16;100.00;99532.75;4994625;28;20077;-88
2022/11/23 01:16:46;;;;;;;3.47;1.90;;;;;;;7.16;100.00;99532.75;4995072;28;20031;-88
2022/11/23 01:19:13;;;;;;;7.70;2.10;;;;;;;7.16;100.00;99537.06;4994496;28;20467;-88
2022/11/23 01:21:39;;;;;;;5.50;2.20;;;;;;;7.15;100.00;99533.63;4995094;28;20022;-88
2022/11/23 01:24:20;;;;;;;3.80;1.90;;;;;;;7.15;100.00;99536.22;4995052;28;20030;-87
2022/11/23 01:27:06;;;;;;;4.60;1.83;;;;;;;7.11;100.00;99532.88;4994613;28;20040;-88
2022/11/23 01:29:31;;;;;;;5.85;1.80;;;;;;;7.12;100.00;99538.84;4995297;28;20022;-87
2022/11/23 01:31:59;;;;;;;2.40;1.60;;;;;;;7.13;100.00;99537.97;4994832;28;20057;-88
2022/11/23 01:34:25;;;;;;;3.80;1.80;;;;;;;7.10;100.00;99544.06;4993737;28;20117;-88
2022/11/23 01:36:50;;;;;;;4.33;1.90;;;;;;;7.14;100.00;99549.16;4994813;28;20415;-87
2022/11/23 01:39:34;;;;;;;2.55;1.60;;;;;;;7.10;100.00;99548.34;4994299;28;20061;-87
2022/11/23 01:42:08;;;;;;;3.05;1.55;;;;;;;7.09;100.00;99559.59;4994579;28;20038;-87
2022/11/23 01:44:35;;;;;;;5.25;2.10;;;;;;;7.14;100.00;99551.75;4994321;28;20085;-87
2022/11/23 01:47:05;;;;;;;2.30;1.60;;;;;;;7.13;100.00;99561.19;4994196;28;20030;-88
2022/11/23 01:49:37;;;;;;;4.32;1.70;;;;;;;7.14;100.00;99565.47;4994912;28;20057;-87
2022/11/23 01:52:08;;;;;;;2.05;1.40;;;;;;;7.14;100.00;99560.31;4994528;28;20135;-87
2022/11/23 01:54:39;;;;;;;4.35;1.95;;;;;;;7.14;100.00;99555.16;4996681;28;20057;-86
2022/11/23 01:57:24;;;;;;;5.28;1.67;;;;;;;7.15;100.00;99556.84;4996895;28;20022;-87
2022/11/23 01:59:56;;;;;;;3.63;1.67;;;;;;;7.15;100.00;99548.28;4995007;28;20030;-88
2022/11/23 02:02:44;;;;;;;7.45;1.85;;;;;;;7.18;100.00;99561.97;4994098;28;20022;-89
2022/11/23 02:05:12;;;;;;;4.72;1.75;;;;;;;7.15;100.00;99558.59;4994149;28;20041;-89
2022/11/23 02:07:38;;;;;;;5.57;1.98;;;;;;;7.19;100.00;99576.56;4994567;28;20037;-89
2022/11/23 02:10:20;;;;;;;2.50;1.53;;;;;;;7.20;100.00;99572.25;4993273;28;20113;-88
2022/11/23 02:12:46;;;;;;;3.70;1.80;;;;;;;7.19;100.00;99579.16;4994111;28;20758;-89
2022/11/23 02:15:20;;;;;;;4.68;1.80;;;;;;;7.22;100.00;99573.91;4994370;28;20102;-90
2022/11/23 02:17:45;;;;;;;3.80;1.75;;;;;;;7.23;100.00;99579.91;4994494;28;20089;-90
2022/11/23 02:20:21;;;;;;;4.10;1.67;;;;;;;7.22;100.00;99573.91;4994284;28;20026;-90
2022/11/23 02:23:20;;;;;;;2.38;1.58;;;;;;;7.25;100.00;99581.56;4993845;28;20105;-89
2022/11/23 02:25:46;;;;;;;5.32;1.77;;;;;;;7.24;100.00;99572.13;4994122;28;20030;-89
2022/11/23 02:28:59;;;;;;;5.10;1.70;;;;;;;7.25;100.00;99578.16;4994021;28;20411;-89
2022/11/23 02:31:25;;;;;;;4.82;1.70;;;;;;;7.24;100.00;99581.63;4994080;28;20022;-86
2022/11/23 02:33:50;;;;;;;3.27;1.80;;;;;;;7.23;100.00;99580.75;4995377;28;20018;-88
2022/11/23 02:36:33;;;;;;;4.27;1.60;;;;;;;7.26;100.00;99577.28;4994950;28;20487;-87
2022/11/23 02:39:15;;;;;;;2.75;1.30;;;;;;;7.27;100.00;99581.53;4997001;28;20026;-87
2022/11/23 02:41:58;;;;;;;3.83;1.42;;;;;;;7.26;100.00;99578.13;4995173;28;20057;-88
2022/11/23 02:45:23;;;;;;;2.25;1.27;;;;;;;7.30;100.00;99590.97;4993346;28;20097;-88
2022/11/23 02:47:49;;;;;;;5.97;2.05;;;;;;;7.29;100.00;99577.19;4915841;29;20106;-87
2022/11/23 02:50:15;;;;;;;3.50;1.40;;;;;;;7.30;100.00;99588.38;4980344;28;20515;-87
2022/11/23 02:52:40;;;;;;;2.58;1.60;;;;;;;7.28;100.00;99584.97;4993918;28;20149;-87
2022/11/23 02:55:06;;;;;;;4.90;1.50;;;;;;;7.27;100.00;99581.53;4993836;28;20062;-87
2022/11/23 02:57:31;;;;;;;2.08;1.50;;;;;;;7.26;100.00;99583.28;4993823;28;20034;-87
2022/11/23 03:00:12;;;;;;;2.33;1.52;;;;;;;7.27;100.00;99586.69;4997141;28;20033;-88
2022/11/23 03:02:38;;;;;;;8.07;1.90;;;;;;;7.28;100.00;99592.72;4997222;28;20034;-87
2022/11/23 03:05:18;;;;;;;5.97;2.00;;;;;;;7.30;100.00;99581.47;4997258;28;20030;-88
2022/11/23 03:07:43;;;;;;;5.88;1.80;;;;;;;7.27;100.00;99576.38;4997695;28;20030;-87
2022/11/23 03:10:09;;;;;;;6.60;2.33;;;;;;;7.26;100.00;99580.69;4996906;28;20395;-88
2022/11/23 03:12:40;;;;;;;8.75;2.05;;;;;;;7.30;100.00;99596.13;4997269;28;20352;-88
2022/11/23 03:15:06;;;;;;;6.25;2.03;;;;;;;7.29;100.00;99591.84;4997225;28;20050;-87
2022/11/23 03:17:32;;;;;;;5.83;1.90;;;;;;;7.28;100.00;99585.81;4996744;28;20480;-88
2022/11/23 03:19:57;;;;;;;2.90;1.70;;;;;;;7.29;100.00;99595.25;4996728;28;20018;-88
2022/11/23 03:22:22;;;;;;;5.07;1.90;;;;;;;7.29;100.00;99590.09;4996826;28;20121;-87
2022/11/23 03:24:47;;;;;;;3.30;1.48;;;;;;;7.28;100.00;99597.88;4996802;28;20030;-87
2022/11/23 03:27:31;;;;;;;2.80;1.58;;;;;;;7.29;100.00;99603.00;4996709;28;20478;-87
2022/11/23 03:29:56;;;;;;;6.00;1.88;;;;;;;7.28;100.00;99597.88;4997092;28;20476;-87
2022/11/23 03:32:22;;;;;;;4.80;1.70;;;;;;;7.25;100.00;99593.66;4996345;28;20037;-87
2022/11/23 03:34:47;;;;;;;4.93;1.92;;;;;;;7.22;100.00;99594.53;4996597;28;20074;-88
2022/11/23 03:37:12;;;;;;;2.80;1.83;;;;;;;7.25;100.00;99601.38;4996419;28;20082;-87
2022/11/23 03:39:56;;;;;;;5.63;1.98;;;;;;;7.22;100.00;99594.53;4996656;28;20026;-87
2022/11/23 03:42:21;;;;;;;3.38;1.75;;;;;;;7.23;100.00;99600.56;4996182;28;20030;-89
2022/11/23 03:44:49;;;;;;;4.40;1.80;;;;;;;7.21;100.00;99595.41;4996753;28;20034;-87
2022/11/23 03:47:15;;;;;;;4.03;1.70;;;;;;;7.20;100.00;99587.72;4996180;28;20029;-87
2022/11/23 03:49:40;;;;;;;5.93;1.87;;;;;;;7.17;100.00;99585.19;4996955;28;20430;-87
2022/11/23 03:52:15;;;;;;;5.60;1.77;;;;;;;7.14;100.00;99591.28;4996276;28;20026;-87
2022/11/23 03:54:40;;;;;;;4.82;1.67;;;;;;;7.13;100.00;99592.16;4995814;28;20018;-87
2022/11/23 03:57:06;;;;;;;3.93;1.77;;;;;;;7.13;100.00;99592.16;4996395;28;20055;-87
2022/11/23 03:59:49;;;;;;;4.50;1.60;;;;;;;7.15;100.00;99597.31;4996932;28;20019;-87
2022/11/23 04:02:14;;;;;;;4.63;1.90;;;;;;;7.13;100.00;99589.59;4996140;28;20024;-87
2022/11/23 04:04:40;;;;;;;2.90;1.40;;;;;;;7.14;100.00;99593.03;4996567;28;20522;-87
2022/11/23 04:07:19;;;;;;;2.13;1.60;;;;;;;7.12;100.00;99598.19;4996309;28;20391;-87
2022/11/23 04:10:03;;;;;;;4.47;2.00;;;;;;;7.10;100.00;99598.25;5014058;28;20027;-87
2022/11/23 04:12:29;;;;;;;5.68;1.95;;;;;;;7.16;100.00;99612.75;4995792;28;20500;-88
2022/11/23 04:14:54;;;;;;;7.30;1.90;;;;;;;7.15;100.00;99605.88;4995595;28;20038;-88
2022/11/23 04:17:42;;;;;;;2.35;1.42;;;;;;;7.16;100.00;99601.56;4995706;28;20026;-87
2022/11/23 04:20:08;;;;;;;5.00;1.70;;;;;;;7.16;100.00;99602.44;4996120;28;20098;-87
2022/11/23 04:22:51;;;;;;;3.43;1.50;;;;;;;7.17;100.00;99604.13;4995547;28;20371;-87
2022/11/23 04:25:16;;;;;;;2.08;1.35;;;;;;;7.15;100.00;99600.72;4996077;28;20073;-88
2022/11/23 04:27:42;;;;;;;2.63;1.17;;;;;;;7.18;100.00;99598.09;4996024;28;20023;-87
2022/11/23 04:30:08;;;;;;;3.03;1.10;;;;;;;7.17;100.00;99601.53;4995352;28;20053;-87
2022/11/23 04:32:46;;;;;;;4.57;1.90;;;;;;;7.17;100.00;99596.38;4995875;28;20397;-89
2022/11/23 04:35:11;;;;;;;5.45;1.67;;;;;;;7.19;100.00;99597.22;4995350;28;20026;-88
2022/11/23 04:37:47;;;;;;;3.37;1.70;;;;;;;7.20;100.00;99588.59;4995231;28;20036;-88
2022/11/23 04:40:12;;;;;;;4.72;1.45;;;;;;;7.18;100.00;99589.47;4995746;28;20022;-87
2022/11/23 04:42:38;;;;;;;4.13;1.53;;;;;;;7.22;100.00;99598.88;4995445;28;20022;-88
2022/11/23 04:45:05;;;;;;;2.57;1.40;;;;;;;7.19;100.00;99599.78;4993997;28;20085;-86
2022/11/23 04:47:31;;;;;;;5.72;1.83;;;;;;;7.19;100.00;99597.22;4995455;28;20038;-87
2022/11/23 04:50:11;;;;;;;2.37;1.47;;;;;;;7.15;100.00;99603.31;4995410;28;20025;-88
2022/11/23 04:52:37;;;;;;;4.78;1.60;;;;;;;7.20;100.00;99605.78;4995508;28;20029;-87
2022/11/23 04:55:05;;;;;;;4.90;1.80;;;;;;;7.15;100.00;99600.72;4995030;28;20018;-86
2022/11/23 04:57:31;;;;;;;6.30;1.90;;;;;;;7.18;100.00;99608.41;4995231;28;20589;-88
2022/11/23 05:00:09;;;;;;;5.83;2.00;;;;;;;7.18;100.00;99600.66;4994948;28;20025;-88
2022/11/23 05:02:34;;;;;;;4.35;1.75;;;;;;;7.20;100.00;99605.78;4994788;28;20026;-87
2022/11/23 05:05:10;;;;;;;4.70;1.80;;;;;;;7.16;100.00;99597.25;4994553;28;20122;-88
2022/11/23 05:07:35;;;;;;;3.97;1.77;;;;;;;7.27;100.00;99591.84;4995562;28;20030;-87
2022/11/23 05:10:10;;;;;;;8.93;1.90;;;;;;;7.16;100.00;99592.09;4995070;28;20493;-88
2022/11/23 05:12:36;;;;;;;2.78;1.52;;;;;;;7.13;100.00;99597.31;4994546;28;20443;-87
2022/11/23 05:15:16;;;;;;;3.73;1.60;;;;;;;7.09;100.00;99591.38;4995152;28;20045;-87
2022/11/23 05:17:42;;;;;;;8.02;2.00;;;;;;;7.13;100.00;99596.47;4994306;28;20070;-88
2022/11/23 05:20:22;;;;;;;6.23;1.70;;;;;;;7.04;100.00;99589.78;4994725;28;20057;-89
2022/11/23 05:22:47;;;;;;;3.33;1.60;;;;;;;6.97;100.00;99591.63;4995712;28;20010;-88
2022/11/23 05:25:12;;;;;;;7.83;1.80;;;;;;;6.94;100.00;99591.69;4995962;28;20141;-87
2022/11/23 05:27:40;;;;;;;3.60;1.73;;;;;;;6.89;100.00;99594.38;4994957;28;20060;-88
2022/11/23 05:30:07;;;;;;;4.85;1.75;;;;;;;6.87;100.00;99592.69;4994077;28;20113;-87
2022/11/23 05:32:32;;;;;;;3.37;1.67;;;;;;;6.86;100.00;99602.19;4994909;28;20073;-88
2022/11/23 05:35:14;;;;;;;3.45;1.50;;;;;;;6.85;100.00;99594.47;4995831;28;20026;-88
2022/11/23 05:37:41;;;;;;;1.27;1.10;;;;;;;6.84;100.00;99596.19;4994444;28;20029;-88
2022/11/23 05:40:24;;;;;;;6.77;1.80;;;;;;;6.82;100.00;99594.50;4993838;28;20034;-88
2022/11/23 05:42:56;;;;;;;4.40;1.60;;;;;;;6.80;100.00;99592.84;4994845;28;20077;-88
2022/11/23 05:45:33;;;;;;;4.53;1.90;;;;;;;6.83;100.00;99591.91;4994209;28;20046;-89
2022/11/23 05:47:58;;;;;;;4.10;1.50;;;;;;;6.84;100.00;99596.19;4993782;28;20120;-88
2022/11/23 05:50:26;;;;;;;4.07;1.70;;;;;;;6.84;100.00;99597.91;4994042;28;20531;-88
2022/11/23 05:52:57;;;;;;;3.13;1.65;;;;;;;6.85;100.00;99599.63;4994792;28;20395;-88
2022/11/23 05:55:41;;;;;;;2.25;1.45;;;;;;;6.83;100.00;99596.22;4993828;28;20566;-89
2022/11/23 05:58:06;;;;;;;1.63;1.20;;;;;;;6.82;100.00;99597.97;4994412;28;20053;-89
2022/11/23 06:00:50;;;;;;;3.17;1.30;;;;;;;6.83;100.00;99609.09;4998258;23;20445;-88
2022/11/23 06:03:15;;;;;;;4.85;1.60;;;;;;;6.78;100.00;99592.03;4975579;28;20110;-89
2022/11/23 06:05:46;;;;;;;2.73;1.50;;;;;;;6.79;100.00;99604.03;4975006;28;20046;-87
2022/11/23 06:08:12;;;;;;;5.85;1.42;;;;;;;6.79;100.00;99598.00;4974683;28;20027;-88
2022/11/23 06:10:37;;;;;;;2.93;1.53;;;;;;;6.74;100.00;99592.09;4974757;28;20045;-88
2022/11/23 06:13:25;;;;;;;4.63;1.70;;;;;;;6.75;100.00;99602.38;4975238;28;20026;-88
2022/11/23 06:15:50;;;;;;;5.18;1.83;;;;;;;6.71;100.00;99599.91;4975370;28;20041;-89
2022/11/23 06:18:25;;;;;;;5.27;1.70;;;;;;;6.71;100.00;99593.00;4974954;28;20030;-89
2022/11/23 06:21:02;;;;;;;6.00;1.70;;;;;;;6.74;100.00;99603.25;4975161;28;20015;-89
2022/11/23 06:23:27;;;;;;;4.25;1.65;;;;;;;6.74;100.00;99602.41;4974231;28;20027;-89
2022/11/23 06:25:53;;;;;;;2.50;1.40;;;;;;;6.75;100.00;99619.59;4974924;28;20034;-89
2022/11/23 06:28:20;;;;;;;2.93;1.43;;;;;;;6.73;100.00;99611.03;4974705;28;20033;-88
2022/11/23 06:31:08;;;;;;;6.70;1.95;;;;;;;6.76;100.00;99610.94;4974601;28;20023;-89
2022/11/23 06:33:39;;;;;;;4.70;1.70;;;;;;;6.74;100.00;99607.59;4977771;28;20106;-88
2022/11/23 06:36:11;;;;;;;4.95;1.80;;;;;;;6.83;100.00;99609.97;4978415;28;20030;-89
2022/11/23 06:38:37;;;;;;;10.00;2.10;;;;;;;6.81;100.00;99619.47;4978411;28;20531;-90
2022/11/23 06:41:03;;;;;;;9.07;2.40;;;;;;;6.78;100.00;99610.06;4978933;28;20062;-88
2022/11/23 06:43:34;;;;;;;6.57;1.95;;;;;;;6.77;100.00;99616.09;4978253;28;20490;-89
2022/11/23 06:46:05;;;;;;;6.57;1.95;;;;;;;6.75;100.00;99611.84;4978170;28;20502;-89
2022/11/23 06:48:33;;;;;;;5.65;1.80;;;;;;;6.77;100.00;99612.66;4978451;28;20057;-89
2022/11/23 06:50:59;;;;;;;3.70;1.77;;;;;;;6.76;100.00;99616.97;4978429;28;20049;-88
2022/11/23 06:53:30;;;;;;;2.63;1.23;;;;;;;6.77;100.00;99621.25;4977734;28;20475;-89
2022/11/23 06:55:59;;;;;;;4.45;1.55;;;;;;;6.77;100.00;99622.97;4978399;28;20480;-89
2022/11/23 06:58:27;;;;;;;4.78;1.58;;;;;;;6.75;100.00;99625.59;4977601;28;20041;-88
2022/11/23 07:00:53;;;;;;;5.30;1.55;;;;;;;6.74;100.00;99635.94;4978002;28;20100;-89
2022/11/23 07:03:39;;;;;;;4.87;1.70;;;;;;;6.74;100.00;99641.09;4978139;28;20093;-90
2022/11/23 07:06:10;;;;;;;5.28;1.65;;;;;;;6.75;100.00;99646.22;4977743;28;20034;-87
2022/11/23 07:08:42;;;;;;;6.63;2.10;;;;;;;6.72;100.00;99645.44;4977508;28;20057;-88
2022/11/23 07:11:25;;;;;;;8.27;2.00;;;;;;;6.72;100.00;99648.00;4973137;28;20037;-86
2022/11/23 07:13:50;;;;;;;4.25;1.58;;;;;;;6.69;100.00;99643.78;4977726;28;20034;-87
2022/11/23 07:16:19;;;;;;;3.63;1.60;;;;;;;6.70;100.00;99658.34;4976995;28;20019;-87
2022/11/23 07:18:47;;;;;;;6.00;1.83;;;;;;;6.70;100.00;99657.50;4975753;28;20039;-87
2022/11/23 07:21:18;;;;;;;2.70;1.40;;;;;;;6.67;100.00;99665.28;4977064;28;20023;-87
2022/11/23 07:23:44;;;;;;;6.05;1.80;;;;;;;6.68;100.00;99661.81;4976912;28;20037;-88
2022/11/23 07:26:24;;;;;;;3.57;1.60;;;;;;;6.63;99.92;99662.78;4977613;28;20026;-88
2022/11/23 07:29:02;;;;;;;5.00;1.95;;;;;;;6.64;100.00;99669.59;4977118;28;20523;-87
2022/11/23 07:31:27;;;;;;;6.18;1.70;;;;;;;6.64;100.00;99679.09;4957127;29;20093;-85
2022/11/23 07:33:52;;;;;;;5.20;1.80;;;;;;;6.63;100.00;99675.66;4956937;29;20019;-87
2022/11/23 07:36:18;;;;;;;3.88;1.60;;;;;;;6.63;100.00;99677.38;4956698;29;20027;-87
2022/11/23 07:38:43;;;;;;;5.18;2.03;;;;;;;6.58;99.67;99682.63;4956694;29;20035;-86
2022/11/23 07:41:08;;;;;;;2.67;1.20;;;;;;;6.56;100.00;99686.13;4957069;29;20031;-86
2022/11/23 07:43:34;;;;;;;8.40;1.77;;;;;;;6.52;99.80;99684.44;4961083;28;20046;-93
2022/11/23 07:46:02;;;;;;;2.70;1.20;;;;;;;6.46;99.45;99685.41;4969626;28;20420;-89
2022/11/23 07:48:36;;;;;;;2.75;1.27;;;;;;;6.48;99.66;99696.53;4976876;28;20031;-88
2022/11/23 07:51:01;;;;;;;3.95;1.48;;;;;;;6.41;99.29;99695.78;4977408;28;20041;-89
2022/11/23 07:53:38;;;;;;;3.78;1.48;;;;;;;6.41;99.34;99700.13;4977450;28;20027;-89
2022/11/23 07:56:09;;;;;;;5.53;1.80;;;;;;;6.42;99.07;99706.94;4976637;28;20502;-87
2022/11/23 07:58:35;;;;;;;5.85;1.70;;;;;;;6.42;98.92;99710.38;4976615;28;20031;-87
2022/11/23 08:01:00;;;;;;;7.40;1.90;;;;;;;6.38;98.47;99710.47;4976037;28;20043;-90
2022/11/23 08:03:43;;;;;;;6.97;1.75;;;;;;;6.36;98.84;99701.91;4977084;28;20019;-89
2022/11/23 08:06:27;;;;;;;4.55;1.40;;;;;;;6.40;98.86;99706.16;4977504;28;20031;-92
2022/11/23 08:08:54;;;;;;;5.00;1.50;;;;;;;6.36;98.82;99707.91;4977157;28;20093;-88
2022/11/23 08:11:23;;;;;;;5.53;1.75;;;;;;;6.40;99.02;99711.31;4978345;28;20034;-96
2022/11/23 08:13:48;;;;;;;4.38;1.90;;;;;;;6.40;98.56;99711.31;4976478;28;20091;-91
2022/11/23 08:16:19;;;;;;;5.68;1.75;;;;;;;6.43;98.56;99708.66;4976888;28;20101;-90
2022/11/23 08:18:51;;;;;;;5.05;1.70;;;;;;;6.45;98.46;99705.19;4976981;28;20098;-91
2022/11/23 08:21:25;;;;;;;4.28;1.30;;;;;;;6.46;98.51;99706.91;4976926;28;20023;-91
2022/11/23 08:23:51;;;;;;;7.35;1.88;;;;;;;6.51;98.08;99709.41;4976734;28;20125;-93
2022/11/23 08:26:28;;;;;;;6.30;1.77;;;;;;;6.55;97.96;99705.88;4976763;28;20495;-91
2022/11/23 08:28:53;;;;;;;7.75;1.83;;;;;;;6.55;97.97;99700.72;4976651;28;20030;-90
2022/11/23 08:31:19;;;;;;;4.13;1.77;;;;;;;6.62;98.01;99706.63;4976039;28;20031;-89
2022/11/23 08:34:06;;;;;;;6.70;2.08;;;;;;;6.68;97.37;99715.97;4976669;28;20034;-89
2022/11/23 08:36:37;;;;;;;5.45;2.00;;;;;;;6.69;97.35;99713.38;4975811;28;20031;-89
2022/11/23 08:39:10;;;;;;;7.10;2.10;;;;;;;6.74;96.84;99721.03;4975807;28;20081;-96
2022/11/23 08:41:36;;;;;;;7.05;1.92;;;;;;;6.79;96.02;99725.25;4975842;28;20097;-87
2022/11/23 08:44:11;;;;;;;6.05;1.90;;;;;;;6.83;96.40;99726.03;4975182;28;20166;-86
2022/11/23 08:46:55;;;;;;;9.27;2.25;;;;;;;6.91;96.06;99721.56;4970398;28;20019;-85
2022/11/23 08:49:40;;;;;;;8.38;2.20;;;;;;;6.98;96.06;99713.75;4893155;28;20046;-86
2022/11/23 08:52:05;;;;;;;6.50;2.13;;;;;;;6.98;94.43;99717.16;4973951;28;20027;-83
2022/11/23 08:54:45;;;;;;;8.37;1.90;;;;;;;7.05;94.31;99721.31;4974328;28;20037;-86
2022/11/23 08:57:20;;;;;;;6.57;2.00;;;;;;;7.09;95.19;99714.38;4973435;28;20019;-87
2022/11/23 08:59:48;;;;;;;8.60;2.00;;;;;;;7.15;93.36;99711.69;4974626;28;20039;-87
2022/11/23 09:02:31;;;;;;;7.70;2.35;;;;;;;7.23;94.65;99714.13;4990837;28;20039;-86
2022/11/23 09:05:15;;;;;;;6.28;2.20;;;;;;;7.32;94.69;99710.50;4993862;28;20034;-86
2022/11/23 09:07:40;;;;;;;6.35;1.90;;;;;;;7.36;94.09;99700.09;4994355;28;20042;-85
2022/11/23 09:10:06;;;;;;;7.87;2.03;;;;;;;7.40;93.67;99696.53;4993355;28;20049;-86
2022/11/23 09:12:47;;;;;;;7.85;2.10;;;;;;;7.47;94.74;99705.00;4994520;28;20433;-88
2022/11/23 09:15:13;;;;;;;8.20;2.28;;;;;;;7.58;93.72;99715.13;4993759;28;20080;-86
2022/11/23 09:17:44;;;;;;;8.30;1.83;;;;;;;7.57;92.70;99709.09;4993519;28;20474;-86
2022/11/23 09:20:10;;;;;;;6.43;2.20;;;;;;;7.64;93.29;99703.81;4993789;28;20026;-85
2022/11/23 09:22:55;;;;;;;7.20;2.10;;;;;;;7.69;91.99;99697.69;4976614;28;20030;-86
2022/11/23 09:25:22;;;;;;;6.70;2.30;;;;;;;7.75;91.49;99696.69;4968157;28;20027;-85
2022/11/23 09:28:01;;;;;;;7.70;2.13;;;;;;;7.83;92.72;99694.78;4964316;28;20480;-86
2022/11/23 09:30:29;;;;;;;4.90;2.03;;;;;;;7.89;92.74;99688.63;4961480;28;20027;-85
2022/11/23 09:33:13;;;;;;;7.40;1.92;;;;;;;7.94;91.83;99685.94;4961458;28;20030;-85
2022/11/23 09:35:56;;;;;;;7.60;2.00;;;;;;;8.03;91.16;99690.88;4971781;28;20105;-85
2022/11/23 09:38:21;;;;;;;12.38;2.47;;;;;;;8.01;90.21;99680.59;4952362;29;20035;-85
2022/11/23 09:41:04;;;;;;;6.60;1.80;;;;;;;8.01;88.09;99678.00;4953710;29;20119;-85
2022/11/23 09:43:50;;;;;;;8.50;2.30;;;;;;;8.12;90.18;99676.91;4953226;29;20043;-83
2022/11/23 09:46:27;;;;;;;6.07;2.03;;;;;;;8.16;90.03;99673.38;4949011;29;20424;-89
2022/11/23 09:49:12;;;;;;;4.82;1.90;;;;;;;8.24;90.84;99668.84;4950542;28;20081;-85
2022/11/23 09:51:39;;;;;;;3.70;1.90;;;;;;;8.33;89.99;99678.97;4955425;28;20027;-86
2022/11/23 09:54:09;;;;;;;;;;;;;;;8.28;88.72;99674.78;4954601;28;20047;-85
2022/11/23 09:56:37;;;;;;;9.65;2.20;;;;;;;8.32;87.85;99666.91;4955105;29;19914;-85
2022/11/23 09:59:17;;;;;;;7.53;2.30;;;;;;;8.31;88.75;99654.03;4954955;28;20035;-85
2022/11/23 10:01:42;;;;;;;8.68;2.38;;;;;;;8.33;87.70;99660.03;4954744;29;20114;-85
2022/11/23 10:04:16;;;;;;;9.50;2.10;;;;;;;8.37;88.01;99655.63;4954985;28;20413;-86
2022/11/23 10:06:42;;;;;;;6.93;1.80;;;;;;;8.41;88.09;99654.66;4954109;29;20026;-84
2022/11/23 10:09:41;;;;;;;8.35;2.20;;;;;;;8.48;87.18;99649.31;4954774;29;20027;-84
2022/11/23 10:12:33;;;;;;;5.70;2.03;;;;;;;8.48;85.14;99644.13;4954442;28;20035;-85
2022/11/23 10:15:19;;;;;;;7.68;1.92;;;;;;;8.57;85.89;99637.03;4954897;23;20529;-84
2022/11/23 10:18:08;;;;;;;5.65;1.98;;;;;;;8.58;86.62;99626.66;4959981;28;20034;-85
2022/11/23 10:20:41;;;;;;;8.07;1.90;;;;;;;8.63;85.24;99629.94;4973252;28;20537;-85
2022/11/23 10:23:16;;;;;;;11.77;2.50;;;;;;;8.64;85.20;99639.41;4974121;28;20035;-86
2022/11/23 10:25:46;;;;;;;4.90;1.92;;;;;;;8.67;84.67;99632.47;4974144;28;20023;-85
2022/11/23 10:28:15;;;;;;;8.35;2.53;;;;;;;8.72;84.19;99628.88;4972764;28;20439;-86
2022/11/23 10:30:41;;;;;;;9.02;2.50;;;;;;;8.74;83.59;99628.81;4973537;28;20037;-85
2022/11/23 10:33:30;;;;;;;6.17;1.63;;;;;;;8.79;84.90;99629.56;4973951;28;20352;-85
2022/11/23 10:35:55;;;;;;;3.10;1.50;;;;;;;8.89;86.06;99630.16;4973333;28;20306;-85
2022/11/23 10:38:36;;;;;;;6.10;1.83;;;;;;;8.93;83.88;99618.81;4973458;28;20031;-84
2022/11/23 10:41:25;;;;;;;6.47;1.95;;;;;;;9.01;85.14;99634.97;4973889;28;20372;-85
2022/11/23 10:44:12;;;;;;;6.72;1.80;;;;;;;9.06;84.41;99630.50;4973800;28;20079;-84
2022/11/23 10:46:39;;;;;;;8.77;1.77;;;;;;;9.18;85.36;99631.06;4973824;28;20039;-86
2022/11/23 10:49:26;;;;;;;7.10;1.67;;;;;;;9.17;82.79;99626.75;4973024;28;20030;-86
2022/11/23 10:51:57;;;;;;;5.03;1.70;;;;;;;9.20;84.70;99621.50;4973945;28;20384;-85
2022/11/23 10:54:36;;;;;;;3.95;1.58;;;;;;;9.31;84.63;99616.00;4973781;28;20222;-87
2022/11/23 10:57:41;;;;;;;6.57;1.90;;;;;;;9.25;82.65;99612.72;4973623;28;20073;-86
2022/11/23 11:00:28;;;;;;;7.87;1.80;;;;;;;9.33;84.51;99607.31;4973431;28;20033;-85
2022/11/23 11:05:56;;;;;;;4.22;1.60;;;;;;;9.43;83.42;99610.44;4973787;28;20039;-86
2022/11/23 11:09:06;;;;;;;4.68;1.60;;;;;;;9.53;84.21;99608.44;4973374;28;20499;-86
2022/11/23 11:11:36;;;;;;;7.22;1.80;;;;;;;9.63;83.56;99602.06;4967767;28;20039;-86
2022/11/23 11:14:17;;;;;;;4.05;1.48;;;;;;;9.63;83.58;99586.53;4972866;28;20051;-86
2022/11/23 11:16:57;;;;;;;6.25;1.50;;;;;;;9.62;82.29;99584.84;4953690;29;20082;-86
2022/11/23 11:19:40;;;;;;;4.97;2.00;;;;;;;9.67;81.91;99587.28;4955322;28;20031;-86
2022/11/23 11:22:55;;;;;;;7.20;1.80;;;;;;;9.60;80.47;99585.78;4957338;29;20031;-85
2022/11/23 11:25:32;;;;;;;5.30;1.50;;;;;;;9.45;82.22;99598.31;4956797;29;20055;-86
2022/11/23 11:28:52;;;;;;;5.75;1.88;;;;;;;9.39;81.78;99581.22;4957474;29;20029;-86
2022/11/23 11:31:32;;;;;;;6.95;1.65;;;;;;;9.46;82.68;99583.63;4878821;29;20033;-86
2022/11/23 11:34:25;;;;;;;7.55;2.08;;;;;;;9.39;82.48;99583.81;4879266;29;20376;-86
2022/11/23 11:37:02;;;;;;;8.70;1.98;;;;;;;9.36;80.29;99567.53;4946613;29;20039;-86
2022/11/23 11:39:51;;;;;;;3.97;1.65;;;;;;;9.35;80.93;99561.47;4956298;29;20038;-86
2022/11/23 11:42:26;;;;;;;7.72;1.80;;;;;;;9.41;80.98;99560.44;4956986;29;20035;-86
2022/11/23 11:44:55;;;;;;;5.40;1.50;;;;;;;9.31;80.39;99559.03;4957115;29;20122;-86
2022/11/23 11:47:30;;;;;;;6.05;1.60;;;;;;;9.33;81.82;99546.91;4957066;29;20041;-85
2022/11/23 11:49:59;;;;;;;4.35;1.50;;;;;;;9.34;80.27;99553.78;4957220;29;20035;-86
2022/11/23 11:53:17;;;;;;;4.63;1.55;;;;;;;9.39;80.78;99531.19;4956586;29;20024;-87
2022/11/23 11:55:59;;;;;;;5.22;1.70;;;;;;;9.48;82.04;99528.31;4971073;29;20027;-87
2022/11/23 11:58:48;;;;;;;3.30;1.60;;;;;;;9.54;81.85;99527.25;4956905;29;20144;-87
2022/11/23 12:01:35;;;;;;;3.78;1.42;;;;;;;9.55;80.48;99516.00;4956828;29;20028;-89
2022/11/23 12:04:07;;;;;;;4.97;1.70;;;;;;;9.58;81.12;99521.06;4957181;29;20045;-87
2022/11/23 12:06:41;;;;;;;2.85;1.27;;;;;;;9.55;80.52;99529.78;4956228;29;20030;-85
2022/11/23 12:09:23;;;;;;;3.67;1.45;;;;;;;9.58;79.97;99515.88;4950771;29;20127;-86